Time;durP1;ratioP1;P1;durP2;ratioP2;P2;SDS_P1;SDS_P2;PMS_P1;PMS_P2;Temp;Humidity;BMP_temperature;BMP_pressure;BME280_temperature;BME280_humidity;BME280_pressure;Samples;Min_cycle;Max_cycle;Signal;HPM_P1;HPM_P2
2021/03/10 00:01:15;;;;;;;13.30;7.93;;;154.00;1126.40;;;;;;5094234;28;20032;-74
2021/03/10 00:03:41;;;;;;;13.10;6.82;;;154.00;1126.40;;;;;;5094280;28;20048;-75
2021/03/10 00:06:07;;;;;;;11.25;6.22;;;154.00;1126.40;;;;;;5093972;28;20044;-75
2021/03/10 00:08:32;;;;;;;14.88;8.57;;;154.00;1126.40;;;;;;5095012;28;20060;-75
2021/03/10 00:10:59;;;;;;;14.85;7.93;;;153.90;1152.00;;;;;;5094692;28;20055;-75
2021/03/10 00:13:25;;;;;;;17.30;8.43;;;154.00;1126.40;;;;;;5095852;28;20029;-74
2021/03/10 00:15:50;;;;;;;18.30;8.20;;;153.90;1126.40;;;;;;5095866;28;20074;-74
2021/03/10 00:18:16;;;;;;;13.73;8.15;;;153.90;1126.40;;;;;;5095787;28;20468;-74
2021/03/10 00:20:42;;;;;;;12.02;7.43;;;153.90;1126.40;;;;;;5094322;28;20027;-74
2021/03/10 00:23:08;;;;;;;16.02;7.53;;;153.90;1152.00;;;;;;5095771;28;20104;-74
2021/03/10 00:25:33;;;;;;;11.02;8.05;;;153.90;1152.00;;;;;;5095916;28;20024;-75
2021/03/10 00:27:59;;;;;;;17.30;7.68;;;154.00;1126.40;;;;;;5095455;28;20027;-74
2021/03/10 00:30:25;;;;;;;9.02;7.05;;;153.90;1126.40;;;;;;5077737;28;20028;-74
2021/03/10 00:32:50;;;;;;;13.95;7.13;;;154.00;1126.40;;;;;;5095243;28;20581;-74
2021/03/10 00:35:16;;;;;;;19.98;7.88;;;153.90;1126.40;;;;;;5095294;28;20028;-74
2021/03/10 00:37:42;;;;;;;12.85;8.68;;;153.90;1152.00;;;;;;5094946;28;20035;-74
2021/03/10 00:40:08;;;;;;;18.17;9.77;;;153.90;1152.00;;;;;;5094483;28;20028;-74
2021/03/10 00:42:33;;;;;;;17.88;8.65;;;153.90;1152.00;;;;;;5094393;28;20028;-74
2021/03/10 00:44:59;;;;;;;15.70;9.85;;;153.90;1152.00;;;;;;5093413;28;20023;-74
2021/03/10 00:47:25;;;;;;;16.77;9.15;;;153.80;1152.00;;;;;;5095166;28;20078;-74
2021/03/10 00:49:51;;;;;;;15.50;8.13;;;153.80;1152.00;;;;;;5093775;28;20028;-74
2021/03/10 00:52:16;;;;;;;16.15;8.70;;;153.70;1152.00;;;;;;5095106;28;20012;-74
2021/03/10 00:54:42;;;;;;;19.85;10.07;;;153.70;1177.60;;;;;;5095217;28;20770;-74
2021/03/10 00:57:08;;;;;;;17.88;8.57;;;153.70;1177.60;;;;;;5093638;28;20404;-74
2021/03/10 00:59:34;;;;;;;14.07;7.13;;;153.70;1152.00;;;;;;5093672;28;20020;-74
2021/03/10 01:02:00;;;;;;;16.27;9.55;;;153.80;1152.00;;;;;;5093232;28;20035;-74
2021/03/10 01:04:27;;;;;;;20.42;9.25;;;153.80;1152.00;;;;;;5093492;28;20070;-74
2021/03/10 01:06:53;;;;;;;12.98;7.22;;;153.80;1152.00;;;;;;5093312;28;20126;-75
2021/03/10 01:09:18;;;;;;;17.05;9.52;;;153.80;1152.00;;;;;;5093333;28;20126;-74
2021/03/10 01:11:45;;;;;;;20.20;10.10;;;153.70;1177.60;;;;;;5093196;28;20031;-74
2021/03/10 01:14:11;;;;;;;19.55;9.02;;;153.70;1177.60;;;;;;5094675;28;20032;-74
2021/03/10 01:16:37;;;;;;;17.10;8.48;;;153.60;1177.60;;;;;;5094518;28;20082;-74
2021/03/10 01:19:04;;;;;;;21.42;9.77;;;153.70;1177.60;;;;;;5093247;28;20028;-74
2021/03/10 01:21:29;;;;;;;15.77;9.40;;;153.70;1177.60;;;;;;5093030;28;20032;-74
2021/03/10 01:23:55;;;;;;;12.40;7.07;;;153.70;1177.60;;;;;;5094477;28;20027;-74
2021/03/10 01:26:21;;;;;;;13.07;7.78;;;153.70;1152.00;;;;;;5094644;28;20499;-74
2021/03/10 01:28:47;;;;;;;10.48;6.43;;;153.70;1152.00;;;;;;5093133;28;20028;-74
2021/03/10 01:31:13;;;;;;;9.45;6.70;;;153.70;1152.00;;;;;;5094015;28;20024;-74
2021/03/10 01:33:38;;;;;;;10.68;6.35;;;153.70;1177.60;;;;;;5094278;28;20069;-74
2021/03/10 01:36:04;;;;;;;12.20;6.03;;;153.60;1177.60;;;;;;5092602;28;20379;-75
2021/03/10 01:38:30;;;;;;;9.27;7.07;;;128.90;1177.60;;;;;;5092221;28;20031;-74
2021/03/10 01:40:56;;;;;;;12.75;8.25;;;153.60;1177.60;;;;;;5093573;28;20123;-74
2021/03/10 01:43:21;;;;;;;14.38;7.30;;;153.60;1177.60;;;;;;5093296;28;20028;-74
2021/03/10 01:45:47;;;;;;;16.52;9.45;;;153.60;1177.60;;;;;;5091822;28;20784;-74
2021/03/10 01:48:14;;;;;;;19.55;8.40;;;153.60;1177.60;;;;;;5091381;28;20032;-74
2021/03/10 01:50:40;;;;;;;14.05;7.95;;;128.90;1203.20;;;;;;5093239;28;20027;-74
2021/03/10 01:53:06;;;;;;;16.98;8.05;;;128.90;1203.20;;;;;;5093216;28;20028;-74
2021/03/10 01:55:32;;;;;;;15.18;7.85;;;128.90;1203.20;;;;;;5092919;28;20058;-74
2021/03/10 01:57:58;;;;;;;10.43;6.82;;;128.90;1177.60;;;;;;5092190;28;20050;-74
2021/03/10 02:00:27;;;;;;;11.82;6.57;;;128.90;1203.20;;;;;;5093880;28;20400;-74
2021/03/10 02:02:53;;;;;;;9.45;6.60;;;153.60;1177.60;;;;;;5092620;28;20074;-74
2021/03/10 02:05:21;;;;;;;13.25;7.32;;;153.60;1177.60;;;;;;5092311;28;20523;-74
2021/03/10 02:08:21;;;;;;;10.57;6.85;;;128.90;1203.20;;;;;;5092481;28;20071;-74
2021/03/10 02:10:49;;;;;;;18.00;8.55;;;128.90;1203.20;;;;;;5092335;28;20131;-74
2021/03/10 02:13:26;;;;;;;13.43;7.68;;;128.90;1177.60;;;;;;5093680;28;20031;-75
2021/03/10 02:16:14;;;;;;;16.23;7.70;;;128.90;1177.60;;;;;;5093744;28;20106;-74
2021/03/10 02:18:45;;;;;;;13.70;6.90;;;128.90;1203.20;;;;;;5093289;28;20119;-74
2021/03/10 02:21:46;;;;;;;15.60;7.78;;;128.80;1203.20;;;;;;5092602;28;20052;-74
2021/03/10 02:24:24;;;;;;;15.63;7.13;;;128.80;1203.20;;;;;;5090797;28;20032;-74
2021/03/10 02:27:15;;;;;;;18.02;7.63;;;128.80;1203.20;;;;;;5092172;28;20021;-74
2021/03/10 02:29:42;;;;;;;10.57;6.43;;;128.90;1203.20;;;;;;5092400;28;20036;-74
2021/03/10 02:32:10;;;;;;;11.95;6.57;;;128.80;1203.20;;;;;;5092482;28;20068;-74
2021/03/10 02:34:37;;;;;;;13.05;6.22;;;128.70;1228.80;;;;;;5092737;28;20110;-74
2021/03/10 02:37:04;;;;;;;12.70;7.57;;;128.70;1203.20;;;;;;5093434;28;20106;-74
2021/03/10 02:39:31;;;;;;;13.55;6.80;;;128.70;1228.80;;;;;;5093580;28;20589;-75
2021/03/10 02:41:57;;;;;;;11.60;6.70;;;128.70;1228.80;;;;;;5093480;28;20047;-74
2021/03/10 02:44:24;;;;;;;10.88;6.65;;;128.70;1228.80;;;;;;5093612;28;20460;-74
2021/03/10 02:46:50;;;;;;;14.73;8.30;;;128.60;1228.80;;;;;;5092603;28;20103;-75
2021/03/10 02:49:17;;;;;;;13.15;8.15;;;128.60;1228.80;;;;;;5093032;28;20109;-75
2021/03/10 02:51:45;;;;;;;9.98;7.03;;;128.60;1228.80;;;;;;5093235;28;20437;-75
2021/03/10 02:54:14;;;;;;;13.68;7.47;;;128.60;1228.80;;;;;;5092258;28;20054;-75
2021/03/10 02:56:45;;;;;;;11.88;7.28;;;128.60;1228.80;;;;;;5093159;28;20468;-75
2021/03/10 02:59:12;;;;;;;11.98;7.13;;;128.60;1228.80;;;;;;5091800;28;20032;-75
2021/03/10 03:01:38;;;;;;;14.77;7.90;;;128.50;1254.40;;;;;;5091858;28;20024;-75
2021/03/10 03:04:04;;;;;;;14.00;7.30;;;128.50;1254.40;;;;;;5093072;28;20012;-74
2021/03/10 03:06:30;;;;;;;13.20;7.43;;;128.50;1254.40;;;;;;5093061;28;20040;-74
2021/03/10 03:08:56;;;;;;;15.88;8.07;;;128.50;1254.40;;;;;;5093095;28;20076;-75
2021/03/10 03:11:23;;;;;;;12.88;7.38;;;128.50;1254.40;;;;;;5093238;28;20024;-74
2021/03/10 03:13:49;;;;;;;12.18;7.20;;;128.50;1254.40;;;;;;5093064;28;20027;-74
2021/03/10 03:16:18;;;;;;;10.32;6.60;;;128.50;1254.40;;;;;;5093331;28;20557;-74
2021/03/10 03:18:43;;;;;;;10.07;6.20;;;128.50;1254.40;;;;;;5092861;28;20111;-75
2021/03/10 03:21:10;;;;;;;10.93;7.57;;;128.50;1254.40;;;;;;5093051;28;20059;-74
2021/03/10 03:23:40;;;;;;;8.85;6.18;;;128.50;1254.40;;;;;;5091756;28;20028;-74
2021/03/10 03:26:06;;;;;;;17.33;7.28;;;128.50;1254.40;;;;;;5092878;28;20042;-74
2021/03/10 03:28:33;;;;;;;13.52;7.30;;;128.40;1280.00;;;;;;5091783;28;20119;-74
2021/03/10 03:30:59;;;;;;;12.55;7.90;;;128.40;1254.40;;;;;;5091536;28;20042;-74
2021/03/10 03:33:28;;;;;;;18.98;10.48;;;128.30;1280.00;;;;;;5092868;28;20392;-74
2021/03/10 03:35:56;;;;;;;20.80;10.30;;;128.40;1280.00;;;;;;5092860;28;20024;-74
2021/03/10 03:38:24;;;;;;;19.10;9.70;;;128.30;1280.00;;;;;;5092659;28;20032;-74
2021/03/10 03:40:51;;;;;;;13.15;7.43;;;128.30;1280.00;;;;;;5092585;28;20069;-75
2021/03/10 03:43:17;;;;;;;23.85;10.77;;;128.30;1280.00;;;;;;5091611;28;20023;-75
2021/03/10 03:45:44;;;;;;;15.43;8.73;;;128.30;1280.00;;;;;;5090625;28;20082;-75
2021/03/10 03:48:11;;;;;;;23.15;10.38;;;128.30;1280.00;;;;;;5093800;28;20032;-75
2021/03/10 03:50:40;;;;;;;17.98;8.48;;;128.30;1280.00;;;;;;5094824;28;20410;-74
2021/03/10 03:53:05;;;;;;;19.40;10.10;;;128.20;1305.60;;;;;;5095070;28;20030;-74
2021/03/10 03:55:31;;;;;;;16.55;9.18;;;128.20;1305.60;;;;;;5096484;28;20417;-74
2021/03/10 03:57:57;;;;;;;13.93;8.43;;;128.20;1305.60;;;;;;5095222;28;20039;-74
2021/03/10 04:00:26;;;;;;;16.40;8.50;;;128.30;1280.00;;;;;;5094795;28;20054;-74
2021/03/10 04:02:52;;;;;;;17.27;8.98;;;128.30;1280.00;;;;;;5094938;28;20420;-74
2021/03/10 04:05:20;;;;;;;20.35;8.80;;;128.20;1305.60;;;;;;5095904;28;20104;-74
2021/03/10 04:07:51;;;;;;;19.02;9.60;;;128.20;1280.00;;;;;;5094831;28;20039;-75
2021/03/10 04:10:17;;;;;;;14.60;8.25;;;128.20;1305.60;;;;;;5096311;28;20020;-75
2021/03/10 04:12:43;;;;;;;26.08;11.40;;;128.20;1280.00;;;;;;5096420;28;20032;-75
2021/03/10 04:15:14;;;;;;;27.58;10.68;;;128.10;1280.00;;;;;;5095549;28;20032;-74
2021/03/10 04:17:39;;;;;;;23.38;9.32;;;128.10;1305.60;;;;;;5094489;28;20034;-75
2021/03/10 04:20:14;;;;;;;18.67;10.07;;;128.10;1305.60;;;;;;5095907;28;20099;-74
2021/03/10 04:22:41;;;;;;;23.10;12.32;;;128.00;1305.60;;;;;;5094434;28;20020;-75
2021/03/10 04:25:07;;;;;;;26.85;12.82;;;128.00;1331.20;;;;;;5095767;28;20031;-74
2021/03/10 04:27:33;;;;;;;23.00;12.20;;;128.00;1305.60;;;;;;5094261;28;20077;-74
2021/03/10 04:30:00;;;;;;;24.50;12.32;;;128.00;1305.60;;;;;;5095902;28;20020;-74
2021/03/10 04:32:25;;;;;;;30.50;12.75;;;128.00;1331.20;;;;;;5095420;28;20020;-74
2021/03/10 04:34:51;;;;;;;26.85;14.70;;;103.30;1305.60;;;;;;5095444;28;20020;-74
2021/03/10 04:37:17;;;;;;;30.27;14.68;;;103.30;1331.20;;;;;;5095683;28;20027;-74
2021/03/10 04:39:42;;;;;;;28.75;13.50;;;103.20;1331.20;;;;;;5093999;28;20051;-74
2021/03/10 04:42:09;;;;;;;18.98;11.25;;;103.20;1356.80;;;;;;5095009;28;20077;-74
2021/03/10 04:44:34;;;;;;;27.33;12.70;;;103.20;1356.80;;;;;;5093758;28;20111;-74
2021/03/10 04:47:00;;;;;;;38.00;14.70;;;103.20;1331.20;;;;;;5095210;28;20480;-74
2021/03/10 04:49:26;;;;;;;40.55;15.52;;;103.20;1331.20;;;;;;5095159;28;20071;-75
2021/03/10 04:51:52;;;;;;;38.72;16.42;;;103.20;1331.20;;;;;;5094987;28;20226;-75
2021/03/10 04:54:17;;;;;;;45.90;16.77;;;103.10;1356.80;;;;;;5093692;28;20051;-75
2021/03/10 04:56:43;;;;;;;41.55;15.52;;;103.10;1356.80;;;;;;5094585;28;20054;-74
2021/03/10 04:59:09;;;;;;;37.25;14.40;;;103.00;1356.80;;;;;;5093720;28;20032;-74
2021/03/10 05:01:34;;;;;;;36.65;15.45;;;103.00;1356.80;;;;;;5094948;28;20073;-75
2021/03/10 05:04:00;;;;;;;30.92;14.70;;;103.00;1356.80;;;;;;5093978;28;20051;-75
2021/03/10 05:06:28;;;;;;;39.72;15.18;;;103.00;1356.80;;;;;;5092535;28;20093;-75
2021/03/10 05:08:54;;;;;;;28.25;12.18;;;103.00;1356.80;;;;;;5094818;28;20074;-74
2021/03/10 05:11:20;;;;;;;24.35;10.23;;;102.90;1382.40;;;;;;5094479;28;20028;-74
2021/03/10 05:13:47;;;;;;;19.23;10.20;;;102.90;1382.40;;;;;;5093415;28;20047;-75
2021/03/10 05:16:13;;;;;;;13.23;8.68;;;102.90;1382.40;;;;;;5094585;28;20030;-74
2021/03/10 05:18:38;;;;;;;27.20;10.65;;;102.90;1382.40;;;;;;5093315;28;20120;-74
2021/03/10 05:21:04;;;;;;;24.20;11.73;;;102.90;1382.40;;;;;;5094504;28;20051;-74
2021/03/10 05:23:30;;;;;;;22.67;11.98;;;102.80;1382.40;;;;;;5094609;28;20030;-74
2021/03/10 05:25:56;;;;;;;30.02;11.35;;;102.80;1382.40;;;;;;5093047;28;20474;-74
2021/03/10 05:28:21;;;;;;;25.17;12.30;;;102.80;1382.40;;;;;;5094358;28;20032;-74
2021/03/10 05:30:47;;;;;;;25.30;11.57;;;102.80;1382.40;;;;;;5094619;28;20099;-74
2021/03/10 05:33:13;;;;;;;28.65;11.27;;;102.80;1382.40;;;;;;5094403;28;20031;-74
2021/03/10 05:35:38;;;;;;;29.38;11.23;;;102.80;1356.80;;;;;;5093996;28;20035;-74
2021/03/10 05:38:04;;;;;;;22.17;10.32;;;102.90;1356.80;;;;;;5094031;28;20454;-74
2021/03/10 05:40:32;;;;;;;20.40;11.02;;;102.80;1356.80;;;;;;5093804;28;20075;-74
2021/03/10 05:42:58;;;;;;;24.48;12.30;;;102.80;1382.40;;;;;;5092887;28;20028;-74
2021/03/10 05:45:24;;;;;;;27.77;12.75;;;102.80;1356.80;;;;;;5094128;28;20531;-75
2021/03/10 05:47:52;;;;;;;22.55;12.65;;;102.80;1382.40;;;;;;5092261;28;20028;-76
2021/03/10 05:50:19;;;;;;;23.20;12.73;;;102.80;1382.40;;;;;;5092592;28;20073;-74
2021/03/10 05:52:48;;;;;;;32.75;15.98;;;102.80;1382.40;;;;;;5091937;28;20032;-75
2021/03/10 05:55:19;;;;;;;49.38;20.27;;;102.90;1382.40;;;;;;5092532;28;20024;-74
2021/03/10 05:57:45;;;;;;;48.97;22.38;;;102.90;1382.40;;;;;;5093004;28;20104;-75
2021/03/10 06:00:15;;;;;;;64.85;26.15;;;102.90;1382.40;;;;;;5094172;28;20546;-75
2021/03/10 06:02:41;;;;;;;53.72;26.13;;;103.00;1382.40;;;;;;5092744;28;20027;-75
2021/03/10 06:05:20;;;;;;;52.35;25.65;;;103.00;1382.40;;;;;;5092655;28;20036;-75
2021/03/10 06:07:46;;;;;;;61.63;30.13;;;103.00;1382.40;;;;;;5093384;28;20384;-75
2021/03/10 06:10:14;;;;;;;52.58;27.58;;;103.00;1382.40;;;;;;5092302;28;20028;-74
2021/03/10 06:12:47;;;;;;;35.72;19.60;;;103.00;1382.40;;;;;;5093721;28;20134;-74
2021/03/10 06:15:14;;;;;;;36.90;20.10;;;103.00;1408.00;;;;;;5092364;28;20038;-74
2021/03/10 06:17:44;;;;;;;39.33;22.02;;;103.00;1408.00;;;;;;5091965;28;20124;-74
2021/03/10 06:20:21;;;;;;;40.55;19.77;;;103.00;1408.00;;;;;;5093960;28;20020;-74
2021/03/10 06:22:47;;;;;;;38.08;20.42;;;103.10;1382.40;;;;;;5093475;28;20031;-74
2021/03/10 06:25:12;;;;;;;41.22;23.38;;;103.10;1408.00;;;;;;5092248;28;20020;-74
2021/03/10 06:27:52;;;;;;;46.00;22.83;;;103.10;1382.40;;;;;;5092003;28;20522;-74
2021/03/10 06:30:43;;;;;;;52.37;26.00;;;103.20;1408.00;;;;;;5091054;28;20032;-74
2021/03/10 06:33:19;;;;;;;62.53;26.20;;;103.10;1382.40;;;;;;5092057;28;20054;-74
2021/03/10 06:35:44;;;;;;;53.97;26.30;;;103.20;1382.40;;;;;;5091234;28;20024;-74
2021/03/10 06:38:18;;;;;;;53.05;22.55;;;103.20;1382.40;;;;;;5093140;28;20106;-74
2021/03/10 06:40:48;;;;;;;65.35;32.65;;;103.30;1382.40;;;;;;5091394;28;20020;-74
2021/03/10 06:43:14;;;;;;;59.33;31.30;;;103.30;1382.40;;;;;;5090601;28;20028;-74
2021/03/10 06:45:39;;;;;;;54.42;27.90;;;103.30;1382.40;;;;;;5090893;28;20016;-74
2021/03/10 06:48:18;;;;;;;43.97;24.13;;;103.30;1382.40;;;;;;5091969;28;20020;-74
2021/03/10 06:50:44;;;;;;;40.22;20.67;;;128.00;1408.00;;;;;;5086171;28;20047;-74
2021/03/10 06:53:10;;;;;;;36.05;20.30;;;128.00;1408.00;;;;;;5091534;28;20028;-75
2021/03/10 06:55:38;;;;;;;36.28;20.08;;;128.10;1433.60;;;;;;5091958;28;20027;-74
2021/03/10 06:58:06;;;;;;;42.35;20.48;;;128.20;1433.60;;;;;;5091158;28;20031;-74
2021/03/10 07:00:31;;;;;;;35.35;19.55;;;128.20;1408.00;;;;;;5090946;28;20488;-74
2021/03/10 07:02:58;;;;;;;34.13;18.80;;;128.30;1408.00;;;;;;5092165;28;20031;-74
2021/03/10 07:05:25;;;;;;;36.55;20.50;;;128.30;1433.60;;;;;;5092413;28;20571;-75
2021/03/10 07:07:52;;;;;;;38.15;22.52;;;128.30;1433.60;;;;;;5092425;28;20036;-74
2021/03/10 07:10:19;;;;;;;46.88;24.90;;;128.30;1433.60;;;;;;5090245;28;20032;-74
2021/03/10 07:12:45;;;;;;;46.95;24.45;;;128.30;1433.60;;;;;;5091480;28;20032;-75
2021/03/10 07:15:12;;;;;;;46.63;26.30;;;128.40;1408.00;;;;;;5092635;28;20404;-75
2021/03/10 07:17:39;;;;;;;47.92;26.42;;;128.40;1433.60;;;;;;5092583;28;20036;-74
2021/03/10 07:20:05;;;;;;;47.88;24.85;;;128.50;1408.00;;;;;;5094218;28;20034;-74
2021/03/10 07:23:11;;;;;;;37.50;21.45;;;128.50;1408.00;;;;;;5094632;28;20038;-76
2021/03/10 07:25:42;;;;;;;38.63;20.70;;;128.50;1408.00;;;;;;5092303;28;20115;-73
2021/03/10 07:28:18;;;;;;;37.58;18.05;;;128.60;1382.40;;;;;;5093725;28;20027;-75
2021/03/10 07:30:48;;;;;;;35.00;17.38;;;128.60;1382.40;;;;;;5093789;28;20051;-75
2021/03/10 07:33:16;;;;;;;34.73;13.83;;;128.70;1356.80;;;;;;5073669;28;20122;-75
2021/03/10 07:36:02;;;;;;;38.85;13.85;;;128.70;1331.20;;;;;;5073112;28;20518;-75
2021/03/10 07:38:34;;;;;;;30.70;14.95;;;128.80;1331.20;;;;;;5074097;28;20025;-75
2021/03/10 07:41:03;;;;;;;23.98;14.13;;;128.90;1331.20;;;;;;5073718;28;20016;-75
2021/03/10 07:43:42;;;;;;;40.00;21.02;;;153.70;1331.20;;;;;;5073188;28;20369;-75
2021/03/10 07:46:30;;;;;;;38.50;18.92;;;153.70;1305.60;;;;;;5074158;28;20481;-76
2021/03/10 07:48:57;;;;;;;32.92;15.38;;;153.90;1305.60;;;;;;5074025;28;20063;-75
2021/03/10 07:51:28;;;;;;;18.58;10.48;;;153.90;1280.00;;;;;;5072133;28;20028;-76
2021/03/10 07:53:54;;;;;;;18.67;9.68;;;154.00;1254.40;;;;;;5072834;28;20033;-76
2021/03/10 07:56:38;;;;;;;17.75;9.57;;;154.00;1228.80;;;;;;5072954;28;20551;-76
2021/03/10 07:59:11;;;;;;;14.27;7.25;;;154.10;1203.20;;;;;;5072685;28;20445;-76
2021/03/10 08:01:37;;;;;;;14.60;7.70;;;154.20;1177.60;;;;;;5072763;28;20372;-77
2021/03/10 08:04:08;;;;;;;8.65;6.43;;;154.30;1152.00;;;;;;5072096;28;20031;-78
2021/03/10 08:07:04;;;;;;;11.63;8.15;;;154.30;1152.00;;;;;;5070342;28;20048;-75
2021/03/10 08:09:30;;;;;;;12.25;9.13;;;154.40;1152.00;;;;;;5059298;28;20113;-75
2021/03/10 08:12:06;;;;;;;16.35;10.05;;;154.50;1152.00;;;;;;5070506;28;20503;-75
2021/03/10 08:14:40;;;;;;;15.88;8.85;;;154.50;1177.60;;;;;;5072169;28;20029;-75
2021/03/10 08:17:07;;;;;;;11.07;7.28;;;179.30;1203.20;;;;;;5072229;28;20025;-75
2021/03/10 08:19:33;;;;;;;12.57;7.05;;;179.30;1177.60;;;;;;5072715;28;20032;-75
2021/03/10 08:21:59;;;;;;;19.38;8.82;;;179.30;1152.00;;;;;;5073344;28;20021;-74
2021/03/10 08:24:27;;;;;;;15.27;7.82;;;179.40;1177.60;;;;;;5072506;28;20079;-75
2021/03/10 08:26:55;;;;;;;10.63;6.85;;;179.40;1152.00;;;;;;5073937;28;20021;-74
2021/03/10 08:29:21;;;;;;;8.18;5.95;;;179.40;1152.00;;;;;;5073807;28;20463;-75
2021/03/10 08:31:53;;;;;;;10.25;7.10;;;179.50;1126.40;;;;;;5071418;28;20827;-75
2021/03/10 08:34:32;;;;;;;8.57;4.97;;;179.50;1126.40;;;;;;5072101;28;20064;-75
2021/03/10 08:36:58;;;;;;;13.55;7.55;;;179.50;1100.80;;;;;;5089655;28;20582;-75
2021/03/10 08:39:24;;;;;;;9.57;7.32;;;179.50;1100.80;;;;;;5113666;28;20042;-75
2021/03/10 08:41:53;;;;;;;14.23;8.35;;;179.50;1075.20;;;;;;5112830;28;20110;-75
2021/03/10 08:44:22;;;;;;;17.15;8.77;;;179.70;1100.80;;;;;;5112296;28;20024;-75
2021/03/10 08:46:50;;;;;;;14.13;8.70;;;179.70;1100.80;;;;;;5112831;28;20023;-75
2021/03/10 08:49:21;;;;;;;13.55;9.02;;;179.80;1100.80;;;;;;5113866;28;20020;-75
2021/03/10 08:51:48;;;;;;;13.15;7.50;;;179.80;1100.80;;;;;;5112489;28;20038;-75
2021/03/10 08:54:16;;;;;;;10.63;6.18;;;179.90;1100.80;;;;;;5112482;28;20023;-75
2021/03/10 08:56:51;;;;;;;10.25;6.00;;;179.90;1100.80;;;;;;5113550;28;20028;-75
2021/03/10 08:59:20;;;;;;;20.52;8.75;;;179.90;1100.80;;;;;;5113680;28;20106;-74
2021/03/10 09:01:50;;;;;;;10.70;6.20;;;180.10;1100.80;;;;;;5113457;28;20054;-75
2021/03/10 09:04:26;;;;;;;17.90;6.85;;;180.10;1075.20;;;;;;5112172;28;20465;-75
2021/03/10 09:06:52;;;;;;;15.77;6.88;;;180.10;1075.20;;;;;;5111758;28;20071;-75
2021/03/10 09:09:19;;;;;;;21.65;8.55;;;204.80;1049.60;;;;;;5113578;28;20019;-75
2021/03/10 09:11:46;;;;;;;17.63;10.07;;;204.80;1049.60;;;;;;5112109;28;20387;-75
2021/03/10 09:14:13;;;;;;;15.05;9.35;;;204.90;1049.60;;;;;;5111990;28;20031;-75
2021/03/10 09:16:58;;;;;;;12.30;7.35;;;205.00;1075.20;;;;;;5112117;28;20023;-75
2021/03/10 09:19:35;;;;;;;15.75;7.80;;;205.10;1075.20;;;;;;5113287;28;20495;-75
2021/03/10 09:22:09;;;;;;;8.20;5.90;;;205.10;1049.60;;;;;;5112001;28;20098;-75
2021/03/10 09:24:49;;;;;;;10.93;7.43;;;205.20;1024.00;;;;;;5111902;28;20111;-75
2021/03/10 09:27:18;;;;;;;12.05;8.07;;;205.20;1024.00;;;;;;5111828;28;20024;-75
2021/03/10 09:29:44;;;;;;;12.93;8.00;;;205.20;1024.00;;;;;;5111361;28;20027;-75
2021/03/10 09:32:10;;;;;;;10.82;6.65;;;205.30;1049.60;;;;;;5111540;28;20023;-75
2021/03/10 09:34:36;;;;;;;12.65;7.38;;;205.30;1024.00;;;;;;5111731;28;20035;-75
2021/03/10 09:37:10;;;;;;;14.60;7.13;;;205.40;1024.00;;;;;;5111471;28;20491;-75
2021/03/10 09:39:47;;;;;;;8.30;5.50;;;205.40;1024.00;;;;;;5112645;28;20024;-75
2021/03/10 09:42:13;;;;;;;12.43;7.95;;;205.40;1049.60;;;;;;5112722;28;20024;-75
2021/03/10 09:44:49;;;;;;;11.35;6.25;;;205.50;1024.00;;;;;;5111445;28;20394;-75
2021/03/10 09:47:22;;;;;;;13.05;7.05;;;205.50;972.80;;;;;;5111614;28;20023;-75
2021/03/10 09:49:56;;;;;;;12.82;5.95;;;205.60;1024.00;;;;;;5111667;28;20387;-75
2021/03/10 09:52:35;;;;;;;15.88;7.13;;;205.60;972.80;;;;;;5111267;28;20034;-75
2021/03/10 09:55:03;;;;;;;13.18;7.13;;;205.60;972.80;;;;;;5112351;28;20024;-76
2021/03/10 09:57:29;;;;;;;13.02;7.35;;;205.50;972.80;;;;;;5111427;28;20024;-75
2021/03/10 09:59:56;;;;;;;18.75;10.15;;;205.60;998.40;;;;;;5110887;28;20032;-75
2021/03/10 10:02:23;;;;;;;25.33;14.32;;;205.60;998.40;;;;;;5111196;28;20043;-75
2021/03/10 10:04:59;;;;;;;14.73;10.10;;;205.60;947.20;;;;;;5111133;28;20039;-75
2021/03/10 10:07:27;;;;;;;12.32;8.15;;;205.70;972.80;;;;;;5112273;28;20027;-75
2021/03/10 10:09:53;;;;;;;8.68;6.50;;;205.70;972.80;;;;;;5111203;28;20157;-75
2021/03/10 10:12:20;;;;;;;13.27;8.45;;;205.70;947.20;;;;;;5110963;28;20027;-75
2021/03/10 10:14:46;;;;;;;11.20;7.85;;;230.50;972.80;;;;;;5112374;28;20015;-75
2021/03/10 10:17:13;;;;;;;12.63;8.25;;;230.50;972.80;;;;;;5110905;28;20155;-75
2021/03/10 10:19:39;;;;;;;11.77;8.32;;;230.60;972.80;;;;;;5112226;28;20039;-75
2021/03/10 10:22:05;;;;;;;14.60;8.55;;;230.70;972.80;;;;;;5110755;28;20122;-75
2021/03/10 10:24:31;;;;;;;9.23;7.03;;;230.80;998.40;;;;;;5112351;28;20102;-75
2021/03/10 10:26:57;;;;;;;12.32;8.27;;;230.80;947.20;;;;;;5112383;28;20024;-75
2021/03/10 10:29:22;;;;;;;12.88;9.32;;;230.80;972.80;;;;;;5110878;28;20020;-75
2021/03/10 10:31:48;;;;;;;14.25;8.82;;;230.90;972.80;;;;;;5110827;28;20024;-75
2021/03/10 10:34:14;;;;;;;18.00;9.25;;;230.90;972.80;;;;;;5112055;28;20024;-75
2021/03/10 10:36:39;;;;;;;11.63;8.23;;;231.00;972.80;;;;;;5112088;28;20028;-75
2021/03/10 10:39:05;;;;;;;17.02;9.38;;;231.00;972.80;;;;;;5111874;28;20020;-75
2021/03/10 10:41:31;;;;;;;14.57;8.93;;;231.00;947.20;;;;;;5110520;28;20038;-75
2021/03/10 10:43:57;;;;;;;17.27;9.48;;;231.00;947.20;;;;;;5111950;28;20026;-75
2021/03/10 10:46:23;;;;;;;13.07;8.93;;;231.00;947.20;;;;;;5110545;28;20024;-75
2021/03/10 10:48:50;;;;;;;12.63;8.98;;;231.10;921.60;;;;;;5111737;28;20027;-75
2021/03/10 10:51:19;;;;;;;11.77;8.18;;;230.90;896.00;;;;;;5110799;28;20089;-75
2021/03/10 10:53:44;;;;;;;11.50;7.85;;;230.90;896.00;;;;;;5111744;28;20026;-75
2021/03/10 10:56:10;;;;;;;12.27;9.63;;;230.90;947.20;;;;;;5115326;28;20016;-75
2021/03/10 10:58:36;;;;;;;17.35;10.48;;;231.10;972.80;;;;;;5114340;28;20047;-75
2021/03/10 11:01:02;;;;;;;20.27;9.88;;;231.30;972.80;;;;;;5116015;28;20024;-75
2021/03/10 11:03:27;;;;;;;17.70;9.52;;;231.30;972.80;;;;;;5114817;28;20063;-75
2021/03/10 11:05:53;;;;;;;17.65;11.15;;;256.00;947.20;;;;;;5114250;28;20101;-75
2021/03/10 11:08:20;;;;;;;18.30;11.00;;;256.00;921.60;;;;;;5115940;27;20016;-75
2021/03/10 11:10:46;;;;;;;16.25;10.77;;;256.00;921.60;;;;;;5114406;28;20039;-75
2021/03/10 11:13:11;;;;;;;14.82;10.07;;;256.00;947.20;;;;;;5115751;28;20027;-75
2021/03/10 11:15:37;;;;;;;19.30;13.82;;;256.00;921.60;;;;;;5114529;28;20085;-75
2021/03/10 11:18:03;;;;;;;32.78;21.48;;;256.00;896.00;;;;;;5115674;28;20031;-75
2021/03/10 11:20:29;;;;;;;26.77;14.40;;;256.10;921.60;;;;;;5097430;28;20411;-75
2021/03/10 11:22:54;;;;;;;15.68;9.90;;;256.20;921.60;;;;;;5115685;28;20024;-75
2021/03/10 11:25:20;;;;;;;16.83;9.88;;;256.40;947.20;;;;;;5115472;28;20024;-75
2021/03/10 11:27:46;;;;;;;25.50;13.13;;;256.40;921.60;;;;;;5114219;28;20069;-75
2021/03/10 11:30:12;;;;;;;23.75;12.18;;;256.60;921.60;;;;;;5115921;28;20527;-75
2021/03/10 11:32:38;;;;;;;18.48;10.18;;;256.60;896.00;;;;;;5112814;28;20032;-75
2021/03/10 11:35:06;;;;;;;15.13;9.85;;;256.60;896.00;;;;;;5115353;28;20028;-75
2021/03/10 11:37:32;;;;;;;11.27;8.77;;;256.60;870.40;;;;;;5115091;28;20047;-75
2021/03/10 11:39:58;;;;;;;15.75;10.27;;;256.70;921.60;;;;;;5114019;28;20028;-75
2021/03/10 11:42:24;;;;;;;13.75;9.75;;;256.80;921.60;;;;;;5113789;28;20106;-75
2021/03/10 11:44:49;;;;;;;28.50;15.52;;;256.80;844.80;;;;;;5113964;28;20019;-75
2021/03/10 11:47:15;;;;;;;20.15;13.20;;;256.90;870.40;;;;;;5115093;28;20084;-75
2021/03/10 11:49:42;;;;;;;13.85;10.18;;;281.60;896.00;;;;;;5115200;28;20036;-75
2021/03/10 11:52:09;;;;;;;18.40;11.27;;;256.80;870.40;;;;;;5115068;28;20023;-75
2021/03/10 11:54:35;;;;;;;15.38;10.98;;;256.70;870.40;;;;;;5115044;28;20023;-75
2021/03/10 11:57:01;;;;;;;14.80;9.88;;;256.60;844.80;;;;;;5114952;28;20364;-75
2021/03/10 11:59:26;;;;;;;16.85;10.85;;;256.50;870.40;;;;;;5113403;28;20032;-75
2021/03/10 12:01:52;;;;;;;20.75;12.18;;;256.50;896.00;;;;;;5114723;28;20028;-75
2021/03/10 12:04:18;;;;;;;14.60;10.65;;;256.60;870.40;;;;;;5113421;28;20108;-75
2021/03/10 12:06:44;;;;;;;17.25;11.00;;;256.70;870.40;;;;;;5112043;28;20487;-75
2021/03/10 12:09:10;;;;;;;14.80;10.40;;;256.80;870.40;;;;;;5114784;28;20031;-75
2021/03/10 12:11:36;;;;;;;29.52;13.68;;;256.80;870.40;;;;;;5114927;28;20639;-75